createdAt,value
2023-01-23T00:00:12.200Z,3.07
2023-01-23T00:05:18.003Z,2.90
2023-01-23T00:10:23.073Z,3.30
2023-01-23T00:15:28.188Z,3.17
2023-01-23T00:20:32.393Z,3.53
2023-01-23T00:25:37.079Z,3.70
2023-01-23T00:30:41.153Z,3.80
2023-01-23T00:35:46.617Z,3.90
2023-01-23T00:40:52.375Z,3.80
2023-01-23T00:45:57.809Z,3.88
2023-01-23T00:51:01.837Z,3.37
2023-01-23T00:56:06.944Z,4.13
2023-01-23T01:01:14.860Z,3.43
2023-01-23T01:06:19.835Z,4.43
2023-01-23T01:11:27.392Z,3.78
2023-01-23T01:16:35.455Z,3.17
2023-01-23T01:21:42.920Z,3.47
2023-01-23T01:26:48.371Z,3.17
2023-01-23T01:31:54.857Z,3.63
2023-01-23T01:36:59.771Z,4.00
2023-01-23T01:42:05.330Z,3.73
2023-01-23T01:47:18.023Z,3.67
2023-01-23T01:52:24.331Z,4.20
2023-01-23T01:57:37.074Z,4.50
2023-01-23T02:02:50.325Z,3.83
2023-01-23T02:08:18.960Z,4.53
2023-01-23T02:13:37.552Z,4.60
2023-01-23T02:18:46.033Z,4.80
2023-01-23T02:24:18.470Z,4.60
2023-01-23T02:29:23.236Z,4.60
2023-01-23T02:34:31.772Z,3.77
2023-01-23T02:39:40.355Z,4.97
2023-01-23T02:44:48.114Z,3.43
2023-01-23T02:49:56.522Z,4.43
2023-01-23T02:55:01.899Z,4.30
2023-01-23T03:00:25.051Z,6.15
2023-01-23T03:05:30.421Z,3.47
2023-01-23T03:10:37.037Z,4.73
2023-01-23T03:15:43.235Z,4.50
2023-01-23T03:20:48.880Z,3.30
2023-01-23T03:25:59.487Z,4.03
2023-01-23T03:31:08.498Z,3.60
2023-01-23T03:36:14.348Z,4.83
2023-01-23T03:41:28.746Z,3.40
2023-01-23T03:46:38.056Z,3.77
2023-01-23T03:51:43.000Z,4.77
2023-01-23T03:56:48.021Z,3.67
2023-01-23T04:02:19.619Z,3.73
2023-01-23T04:07:25.412Z,3.33
2023-01-23T04:12:31.998Z,3.63
2023-01-23T04:17:37.044Z,4.03
2023-01-23T04:22:42.976Z,3.83
2023-01-23T04:27:48.534Z,3.63
2023-01-23T04:32:52.576Z,5.83
2023-01-23T04:37:57.168Z,5.03
2023-01-23T04:43:02.517Z,4.67
2023-01-23T04:48:25.025Z,3.30
2023-01-23T04:53:30.457Z,4.10
2023-01-23T04:58:38.790Z,3.73
2023-01-23T05:03:46.826Z,2.60
2023-01-23T05:08:53.904Z,3.97
2023-01-23T05:14:08.866Z,5.20
2023-01-23T05:19:16.422Z,4.77
2023-01-23T05:24:23.023Z,3.17
2023-01-23T05:29:27.876Z,4.27
2023-01-23T05:34:44.771Z,4.77
2023-01-23T05:40:01.600Z,5.03
2023-01-23T05:45:27.627Z,3.63
2023-01-23T05:50:34.610Z,3.63
2023-01-23T05:55:39.970Z,3.90
2023-01-23T06:00:46.468Z,3.97
2023-01-23T06:06:13.154Z,4.37
2023-01-23T06:11:16.957Z,3.87
2023-01-23T06:16:22.133Z,4.33
2023-01-23T06:21:28.554Z,4.73
2023-01-23T06:26:36.391Z,4.63
2023-01-23T06:31:41.338Z,4.00
2023-01-23T06:36:48.268Z,4.73
2023-01-23T06:41:55.164Z,5.28
2023-01-23T06:47:00.250Z,4.50
2023-01-23T06:52:08.595Z,4.07
2023-01-23T06:57:14.039Z,4.03
2023-01-23T07:02:19.494Z,3.50
2023-01-23T07:07:27.759Z,4.15
2023-01-23T07:12:33.972Z,3.63
2023-01-23T07:17:38.601Z,3.33
2023-01-23T07:22:44.597Z,5.27
2023-01-23T07:27:48.481Z,4.53
2023-01-23T07:32:55.815Z,4.28
2023-01-23T07:38:01.103Z,3.30
2023-01-23T07:43:06.530Z,3.60
2023-01-23T07:48:11.374Z,4.23
2023-01-23T07:53:15.207Z,3.80
2023-01-23T07:58:22.643Z,3.13
2023-01-23T08:03:29.571Z,3.77
2023-01-23T08:08:34.532Z,3.58
2023-01-23T08:13:39.410Z,3.93
2023-01-23T08:18:45.153Z,3.33
2023-01-23T08:23:48.970Z,4.13
2023-01-23T08:28:54.718Z,4.70
2023-01-23T08:33:59.613Z,3.93
2023-01-23T08:39:04.026Z,4.00
2023-01-23T08:44:08.698Z,4.03
2023-01-23T08:49:12.849Z,3.90
2023-01-23T08:54:17.485Z,3.83
2023-01-23T08:59:22.525Z,4.30
2023-01-23T09:04:26.387Z,4.33
2023-01-23T09:09:31.109Z,3.85
2023-01-23T09:14:35.146Z,3.92
2023-01-23T09:19:39.966Z,4.60
2023-01-23T09:24:45.492Z,3.57
2023-01-23T09:29:52.189Z,3.77
2023-01-23T09:34:56.183Z,4.23
2023-01-23T09:40:01.505Z,3.70
2023-01-23T09:45:09.041Z,4.30
2023-01-23T09:50:28.646Z,4.00
2023-01-23T09:55:43.585Z,3.87
2023-01-23T10:00:48.291Z,3.70
2023-01-23T10:06:20.873Z,4.10
2023-01-23T10:11:34.739Z,3.10
2023-01-23T10:16:50.853Z,3.50
2023-01-23T10:22:37.071Z,3.70
2023-01-23T10:27:47.780Z,3.30
2023-01-23T10:33:15.699Z,4.20
2023-01-23T10:38:34.493Z,3.30
2023-01-23T10:43:38.298Z,3.78
2023-01-23T10:48:54.091Z,3.93
2023-01-23T10:54:31.347Z,3.47
2023-01-23T10:59:52.759Z,3.80
2023-01-23T11:05:00.135Z,3.47
2023-01-23T11:10:12.841Z,3.53
2023-01-23T11:15:27.123Z,3.53
2023-01-23T11:20:35.633Z,3.97
2023-01-23T11:26:07.589Z,3.83
2023-01-23T11:31:20.152Z,4.63
2023-01-23T11:36:53.623Z,4.20
2023-01-23T11:41:59.252Z,3.47
2023-01-23T11:47:40.267Z,3.97
2023-01-23T11:53:07.278Z,4.27
2023-01-23T11:58:37.210Z,3.37
2023-01-23T12:04:25.340Z,2.90
2023-01-23T12:09:55.177Z,3.10
2023-01-23T12:15:19.107Z,3.40
2023-01-23T12:20:48.505Z,3.60
2023-01-23T12:26:05.031Z,3.00
2023-01-23T12:31:25.064Z,3.60
2023-01-23T12:36:44.294Z,3.60
2023-01-23T12:42:12.469Z,4.20
2023-01-23T12:47:27.938Z,3.70
2023-01-23T12:52:45.614Z,3.57
2023-01-23T13:03:37.410Z,3.67
2023-01-23T13:09:12.621Z,2.90
2023-01-23T13:15:12.457Z,3.88
2023-01-23T13:20:41.428Z,3.40
2023-01-23T13:25:47.625Z,3.63
2023-01-23T13:31:05.027Z,4.40
2023-01-23T13:36:24.877Z,3.30
2023-01-23T13:41:36.101Z,3.43
2023-01-23T14:20:40.379Z,4.20
2023-01-23T14:25:48.768Z,4.27
2023-01-23T14:31:23.814Z,3.92
2023-01-23T14:36:29.535Z,4.47
2023-01-23T14:41:41.852Z,4.53
2023-01-23T14:46:48.068Z,4.97
2023-01-23T14:52:02.973Z,4.80
2023-01-23T14:57:10.803Z,4.43
2023-01-23T15:02:28.222Z,4.40
2023-01-23T15:12:39.202Z,6.47
2023-01-23T15:17:46.969Z,9.05
2023-01-23T15:22:52.593Z,6.13
2023-01-23T15:27:58.105Z,4.55
2023-01-23T15:33:07.961Z,4.77
2023-01-23T15:38:18.725Z,4.63
2023-01-23T15:43:24.786Z,6.07
2023-01-23T15:48:29.484Z,6.03
2023-01-23T15:53:35.377Z,5.80
2023-01-23T16:03:46.764Z,4.93
2023-01-23T16:09:05.145Z,4.43
2023-01-23T16:14:19.464Z,4.93
2023-01-23T16:19:25.722Z,4.90
2023-01-23T16:24:35.591Z,5.97
2023-01-23T16:29:39.619Z,5.77
2023-01-23T16:34:44.666Z,5.87
2023-01-23T16:39:48.549Z,5.87
2023-01-23T16:44:53.411Z,5.83
2023-01-23T16:49:57.169Z,7.10
2023-01-23T16:55:14.529Z,6.30
2023-01-23T17:00:33.506Z,5.37
2023-01-23T17:05:39.840Z,5.23
2023-01-23T17:10:46.604Z,5.67
2023-01-23T17:15:57.666Z,5.23
2023-01-23T17:21:02.381Z,5.73
2023-01-23T17:26:18.557Z,5.72
2023-01-23T17:31:27.568Z,4.33
2023-01-23T17:36:37.635Z,5.60
2023-01-23T17:41:45.895Z,5.40
2023-01-23T17:46:56.952Z,5.07
2023-01-23T17:52:03.391Z,4.60
2023-01-23T17:57:07.257Z,5.10
2023-01-23T18:02:27.721Z,5.10
2023-01-23T18:07:52.267Z,4.80
2023-01-23T18:13:23.922Z,5.40
2023-01-23T18:18:34.635Z,6.47
2023-01-23T18:23:39.613Z,5.03
2023-01-23T18:29:14.543Z,4.67
2023-01-23T18:34:37.822Z,5.33
2023-01-23T18:39:41.449Z,5.50
2023-01-23T18:45:23.699Z,5.77
2023-01-23T18:50:31.102Z,5.00
2023-01-23T18:56:15.103Z,5.50
2023-01-23T19:01:54.394Z,5.27
2023-01-23T19:06:59.275Z,3.80
2023-01-23T19:12:25.473Z,5.40
2023-01-23T19:17:52.549Z,4.90
2023-01-23T19:23:23.006Z,4.83
2023-01-23T19:28:27.117Z,4.95
2023-01-23T19:33:31.386Z,5.60
2023-01-23T19:38:35.425Z,5.00
2023-01-23T19:43:39.160Z,4.73
2023-01-23T19:48:45.596Z,4.67
2023-01-23T19:53:50.863Z,5.72
2023-01-23T19:58:55.154Z,5.27
2023-01-23T20:03:59.147Z,5.83
2023-01-23T20:09:03.750Z,4.93
2023-01-23T20:14:08.449Z,5.63
2023-01-23T20:19:17.100Z,4.60
2023-01-23T20:24:22.853Z,5.27
2023-01-23T20:29:28.769Z,4.87
2023-01-23T20:34:34.210Z,5.00
2023-01-23T20:39:38.213Z,4.30
2023-01-23T20:44:45.896Z,4.43
2023-01-23T20:49:50.023Z,5.07
2023-01-23T20:54:54.000Z,4.97
2023-01-23T20:59:58.387Z,4.77
2023-01-23T21:05:03.956Z,4.30
2023-01-23T21:10:08.172Z,4.70
2023-01-23T21:15:13.536Z,5.13
2023-01-23T21:20:20.368Z,4.93
2023-01-23T21:25:26.079Z,4.87
2023-01-23T21:30:31.488Z,4.90
2023-01-23T21:35:36.939Z,4.27
2023-01-23T21:40:40.841Z,4.97
2023-01-23T21:45:45.756Z,4.17
2023-01-23T21:50:49.751Z,4.33
2023-01-23T21:55:55.077Z,4.30
2023-01-23T22:01:20.233Z,4.13
2023-01-23T22:06:26.829Z,4.50
2023-01-23T22:11:32.924Z,3.80
2023-01-23T22:16:48.383Z,3.77
2023-01-23T22:21:54.626Z,3.40
2023-01-23T22:26:58.357Z,4.93
2023-01-23T22:32:05.113Z,3.90
2023-01-23T22:37:14.894Z,3.77
2023-01-23T22:42:21.728Z,3.90
2023-01-23T22:47:25.804Z,4.40
2023-01-23T22:52:29.521Z,3.93
2023-01-23T22:57:37.016Z,4.00
2023-01-23T23:02:41.148Z,4.37
2023-01-23T23:07:45.116Z,4.10
2023-01-23T23:12:48.944Z,3.90
2023-01-23T23:17:52.949Z,2.90
2023-01-23T23:22:56.716Z,4.17
2023-01-23T23:28:01.904Z,3.85
2023-01-23T23:33:06.504Z,3.72
2023-01-23T23:38:16.828Z,3.80
2023-01-23T23:43:20.610Z,4.80
2023-01-23T23:48:24.941Z,4.70
2023-01-23T23:53:28.894Z,3.50
2023-01-23T23:58:35.779Z,4.77
